NCAR-RAP Real-Time Weather Data

Output produced by METARs form (12 August 2020  18:47 UTC)
found at http://weather.rap.ucar.edu/surface/
 
KSAC 121753Z VRB05KT 10SM CLR 24/14 A2992 RMK AO2 SLP130 T02390144 10239 20144 51008
KSAC 121653Z 19005KT 10SM CLR 20/14 A2991 RMK AO2 SLP129 T02000139
KSAC 121553Z 21005KT 10SM CLR 18/13 A2991 RMK AO2 SLP128 T01780133
KSAC 121453Z 21007KT 10SM CLR 16/13 A2989 RMK AO2 SLP122 T01560128 51013
KSAC 121353Z 20006KT 10SM FEW007 14/13 A2988 RMK AO2 SLP118 T01440128
KSAC 121253Z AUTO 19007KT 10SM CLR 15/13 A2987 RMK AO2 SLP114 T01500128 TSNO
KSAC 121153Z AUTO 20007KT 10SM CLR 16/13 A2985 RMK AO2 SLP109 T01560128 10183 20156 58000 TSNO
KSAC 121053Z AUTO 19007KT 10SM CLR 16/13 A2986 RMK AO2 SLP109 T01610133 TSNO
KSAC 120953Z AUTO 17006KT 10SM CLR 17/13 A2985 RMK AO2 SLP109 T01670133 TSNO
KSAC 120853Z AUTO 17005KT 10SM CLR 17/13 A2985 RMK AO2 SLP109 T01670133 50001
KSAC 120753Z AUTO 17006KT 10SM CLR 17/13 A2986 RMK AO2 SLP111 T01670133 403000161
KSAC 120653Z AUTO 15004KT 10SM CLR 17/13 A2986 RMK AO2 SLP111 T01720133
KSAC 120553Z AUTO VRB05KT 10SM CLR 18/13 A2985 RMK AO2 SLP108 T01830133 10294 20183 51014
KSAC 120453Z AUTO 19009KT 10SM CLR 19/13 A2984 RMK AO2 SLP105 T01940128
KSAC 120353Z 21011G18KT 10SM CLR 22/13 A2983 RMK AO2 SLP099 T02170128
KSAC 120253Z 21009G14KT 10SM CLR 24/12 A2981 RMK AO2 SLP094 T02390122 55005
KSAC 120153Z 19008G19KT 10SM CLR 27/12 A2981 RMK AO2 SLP093 T02670117
KSAC 120053Z 21010KT 10SM CLR 28/12 A2981 RMK AO2 SLP095 T02830122
KSAC 111953Z 20011KT 10SM CLR 26/14 A2989 RMK AO2 SLP121 T02560139
KSAC 111853Z 19010KT 10SM CLR 24/13 A2990 RMK AO2 SLP124 T02390133
KSAC 111753Z 21009KT 10SM CLR 22/13 A2990 RMK AO2 SLP123 T02220133 10222 20161 51010
KSAC 111653Z 20011G17KT 10SM CLR 21/13 A2989 RMK AO2 SLP121 T02060133
KSAC 111553Z 21010G18KT 10SM CLR 18/13 A2989 RMK AO2 SLP120 T01830133
KSAC 111453Z 20010G16KT 10SM CLR 16/13 A2987 RMK AO2 SLP113 T01610133 53015
KSAC 111353Z 20010G16KT 10SM CLR 16/13 A2985 RMK AO2 SLP108 T01610133
KSAC 111253Z AUTO 19008KT 160V230 10SM CLR 16/13 A2983 RMK AO2 SLP102 T01610128
KSAC 111153Z AUTO 18006KT 10SM CLR 17/13 A2982 RMK AO2 SLP098 T01670128 10194 20167 53000
KSAC 111053Z AUTO 18009KT 10SM CLR 17/13 A2981 RMK AO2 SLP095 T01670133
KSAC 110953Z AUTO 18006KT 10SM CLR 17/13 A2981 RMK AO2 SLP094 T01720133
KSAC 110853Z AUTO 18007KT 10SM CLR 17/13 A2982 RMK AO2 SLP098 T01720133 51003
KSAC 110753Z AUTO 17006KT 10SM CLR 18/13 A2982 RMK AO2 SLP097 T01780133 403610172
KSAC 110653Z AUTO 17005KT 10SM CLR 19/13 A2982 RMK AO2 SLP097 T01890133
KSAC 110553Z AUTO 17005KT 10SM CLR 19/13 A2981 RMK AO2 SLP095 T01940128 10339 20194 53009
KSAC 110453Z AUTO VRB05KT 10SM CLR 21/13 A2980 RMK AO2 SLP090 T02060128
KSAC 110353Z 21010G16KT 10SM CLR 22/12 A2978 RMK AO2 SLP085 T02220122
KSAC 110253Z VRB05KT 10SM CLR 26/12 A2978 RMK AO2 SLP085 T02560122 53002
KSAC 110153Z 21009G16KT 10SM CLR 28/12 A2976 RMK AO2 SLP077 T02830122
KSAC 110053Z 19012G17KT 10SM CLR 32/13 A2977 RMK AO2 SLP079 T03220133
KSAC 102353Z 21010G16KT 10SM CLR 34/13 A2978 RMK AO2 SLP083 T03390128 10361 20267 56014
KSAC 102253Z 19009KT 10SM CLR 36/13 A2979 RMK AO2 SLP087 T03560133
KSAC 102153Z 28003KT 10SM CLR 35/14 A2980 RMK AO2 SLP090 T03500139
KSAC 102053Z 19004KT 10SM CLR 34/14 A2982 RMK AO2 SLP097 T03390144 58017
KSAC 101953Z 20005KT 10SM CLR 32/14 A2984 RMK AO2 SLP103 T03170139
KSAC 101853Z VRB03KT 10SM CLR 29/14 A2986 RMK AO2 SLP111 T02890139